createdAt,value
2017-12-29T00:03:08.515Z,79.40
2017-12-29T00:08:11.810Z,78.70
2017-12-29T00:13:14.347Z,78.70
2017-12-29T00:18:16.891Z,78.70
2017-12-29T00:23:20.206Z,78.50
2017-12-29T00:28:23.554Z,77.90
2017-12-29T00:33:26.098Z,77.90
2017-12-29T00:38:28.642Z,78.40
2017-12-29T00:43:31.199Z,78.40
2017-12-29T00:48:33.772Z,78.60
2017-12-29T00:53:36.322Z,78.50
2017-12-29T00:58:38.855Z,78.50
2017-12-29T01:03:42.163Z,78.60
2017-12-29T01:08:44.705Z,78.50
2017-12-29T01:13:47.269Z,79.00
2017-12-29T01:18:50.574Z,78.80
2017-12-29T01:23:53.114Z,78.80
2017-12-29T01:28:55.674Z,79.60
2017-12-29T01:33:58.343Z,78.90
2017-12-29T01:39:00.873Z,78.90
2017-12-29T01:44:04.199Z,78.70
2017-12-29T01:49:07.518Z,78.60
2017-12-29T01:54:10.818Z,78.70
2017-12-29T01:59:13.387Z,78.70
2017-12-29T02:04:15.941Z,78.70
2017-12-29T02:09:18.506Z,78.70
2017-12-29T02:14:21.055Z,78.60
2017-12-29T02:19:23.713Z,78.40
2017-12-29T02:24:26.319Z,78.60
2017-12-29T02:29:28.889Z,78.60
2017-12-29T02:34:31.427Z,78.50
2017-12-29T02:39:34.723Z,78.50
2017-12-29T02:44:37.266Z,78.50
2017-12-29T02:49:39.805Z,78.70
2017-12-29T02:54:42.474Z,78.70
2017-12-29T02:59:45.016Z,78.50
2017-12-29T03:04:47.557Z,78.60
2017-12-29T03:09:50.109Z,78.60
2017-12-29T03:14:52.665Z,78.50
2017-12-29T03:19:55.206Z,78.60
2017-12-29T03:24:58.580Z,78.70
2017-12-29T03:30:01.138Z,78.70
2017-12-29T03:35:03.698Z,78.60
2017-12-29T03:40:06.270Z,78.60
2017-12-29T03:45:08.804Z,78.40
2017-12-29T03:50:11.339Z,78.10
2017-12-29T03:55:14.646Z,78.00
2017-12-29T04:00:17.196Z,78.00
2017-12-29T04:05:19.723Z,77.90
2017-12-29T04:10:22.270Z,78.60
2017-12-29T04:15:24.818Z,78.60
2017-12-29T04:20:27.346Z,78.60
2017-12-29T04:25:30.641Z,78.60
2017-12-29T04:30:33.204Z,78.60
2017-12-29T04:35:35.769Z,78.10
2017-12-29T04:40:39.089Z,78.20
2017-12-29T04:45:41.622Z,78.20
2017-12-29T04:50:44.139Z,77.90
2017-12-29T04:55:46.665Z,78.00
2017-12-29T05:00:49.234Z,78.20
2017-12-29T05:05:51.778Z,78.30
2017-12-29T05:10:54.326Z,78.10
2017-12-29T05:15:56.878Z,78.30
2017-12-29T05:20:59.431Z,78.20
2017-12-29T05:26:01.978Z,78.20
2017-12-29T05:31:04.535Z,78.20
2017-12-29T05:36:07.082Z,78.00
2017-12-29T05:41:09.613Z,77.70
2017-12-29T05:46:12.154Z,77.50
2017-12-29T05:51:14.740Z,77.40
2017-12-29T05:56:17.274Z,77.80
2017-12-29T06:01:19.873Z,77.80
2017-12-29T06:06:24.789Z,78.00
2017-12-29T06:11:30.094Z,78.10
2017-12-29T06:21:43.369Z,78.10
2017-12-29T06:26:53.637Z,78.30
2017-12-29T06:37:11.155Z,78.00
2017-12-29T06:42:24.935Z,78.00
2017-12-29T06:47:32.884Z,77.80
2017-12-29T06:52:38.570Z,78.20
2017-12-29T06:57:45.018Z,78.10
2017-12-29T07:02:57.464Z,77.90
2017-12-29T07:08:03.772Z,77.90
2017-12-29T07:13:10.499Z,77.20
2017-12-29T07:18:16.869Z,77.30
2017-12-29T07:23:25.175Z,77.30
2017-12-29T07:28:28.835Z,77.40
2017-12-29T07:33:34.728Z,77.70
2017-12-29T07:38:40.870Z,77.70
2017-12-29T07:43:47.668Z,77.80
2017-12-29T07:48:53.303Z,77.40
2017-12-29T07:54:03.265Z,77.40
2017-12-29T07:59:06.356Z,77.30
2017-12-29T08:04:12.638Z,77.30
2017-12-29T08:09:23.056Z,77.40
2017-12-29T08:14:29.277Z,77.30
2017-12-29T08:19:34.361Z,77.00
2017-12-29T08:24:39.018Z,76.80
2017-12-29T08:29:44.663Z,76.50
2017-12-29T08:34:52.511Z,76.10
2017-12-29T08:39:59.838Z,76.20
2017-12-29T08:45:15.396Z,76.30
2017-12-29T08:50:23.151Z,76.80
2017-12-29T08:55:28.901Z,76.60
2017-12-29T09:00:33.153Z,76.90
2017-12-29T09:05:45.933Z,75.70
2017-12-29T09:10:54.457Z,75.90
2017-12-29T09:16:02.120Z,76.60
2017-12-29T09:21:15.702Z,76.00
2017-12-29T09:26:21.868Z,76.20
2017-12-29T09:31:28.757Z,76.70
2017-12-29T09:36:37.381Z,76.40
2017-12-29T09:41:45.739Z,76.20
2017-12-29T09:46:56.027Z,75.50
2017-12-29T09:52:01.613Z,75.70
2017-12-29T09:57:16.025Z,74.50
2017-12-29T10:02:22.057Z,74.40
2017-12-29T10:07:27.041Z,73.40
2017-12-29T10:12:32.918Z,72.70
2017-12-29T10:17:40.877Z,72.70
2017-12-29T10:22:49.594Z,72.50
2017-12-29T10:27:53.604Z,74.00
2017-12-29T10:33:00.970Z,73.70
2017-12-29T10:38:07.486Z,72.00
2017-12-29T10:43:41.265Z,72.20
2017-12-29T10:48:43.791Z,71.50
2017-12-29T10:53:46.334Z,69.40
2017-12-29T10:58:49.159Z,70.70
2017-12-29T11:03:56.203Z,69.70
2017-12-29T11:09:01.886Z,70.30
2017-12-29T11:14:07.532Z,68.00
2017-12-29T11:19:12.997Z,67.90
2017-12-29T11:24:20.536Z,69.30
2017-12-29T11:29:26.259Z,68.00
2017-12-29T11:34:31.990Z,67.40
2017-12-29T11:39:39.856Z,67.00
2017-12-29T11:44:44.384Z,68.10
2017-12-29T11:49:50.522Z,70.00
2017-12-29T11:55:06.666Z,70.20
2017-12-29T12:00:15.083Z,71.10
2017-12-29T12:05:30.465Z,71.40
2017-12-29T12:10:35.524Z,69.10
2017-12-29T12:15:41.044Z,69.30
2017-12-29T12:20:45.247Z,69.00
2017-12-29T12:25:49.451Z,69.40
2017-12-29T12:30:56.725Z,68.50
2017-12-29T12:36:05.604Z,68.80
2017-12-29T12:41:15.865Z,68.40
2017-12-29T12:46:20.910Z,66.30
2017-12-29T12:51:29.755Z,67.90
2017-12-29T12:56:37.046Z,67.40
2017-12-29T13:01:44.231Z,66.60
2017-12-29T13:06:52.359Z,66.90
2017-12-29T13:11:59.289Z,66.60
2017-12-29T13:17:07.342Z,66.70
2017-12-29T13:22:12.432Z,66.70
2017-12-29T13:27:19.611Z,63.80
2017-12-29T13:32:26.666Z,65.10
2017-12-29T13:37:36.554Z,65.10
2017-12-29T13:42:43.051Z,66.00
2017-12-29T13:47:54.826Z,65.90
2017-12-29T13:58:10.733Z,66.80
2017-12-29T14:03:16.545Z,66.60
2017-12-29T14:08:21.914Z,66.00
2017-12-29T14:13:27.582Z,66.50
2017-12-29T14:18:34.425Z,66.10
2017-12-29T14:23:47.819Z,65.40
2017-12-29T14:28:53.811Z,65.80
2017-12-29T14:34:00.051Z,65.60
2017-12-29T14:39:08.617Z,65.20
2017-12-29T14:44:15.582Z,65.40
2017-12-29T14:49:23.579Z,66.60
2017-12-29T14:54:29.387Z,66.30
2017-12-29T14:59:38.749Z,66.30
2017-12-29T15:04:48.859Z,66.50
2017-12-29T15:09:55.584Z,66.60
2017-12-29T15:15:01.487Z,66.90
2017-12-29T15:20:09.722Z,67.10
2017-12-29T15:25:14.784Z,66.90
2017-12-29T15:30:21.771Z,67.70
2017-12-29T15:35:24.373Z,67.30
2017-12-29T15:40:26.902Z,67.80
2017-12-29T15:45:29.453Z,67.80
2017-12-29T15:50:32.002Z,67.80
2017-12-29T15:55:34.546Z,68.10
2017-12-29T16:00:46.007Z,68.30
2017-12-29T16:11:06.785Z,68.20
2017-12-29T16:16:11.186Z,67.50
2017-12-29T16:21:18.150Z,68.10
2017-12-29T16:26:23.080Z,68.40
2017-12-29T16:31:28.992Z,68.50
2017-12-29T16:36:33.489Z,68.60
2017-12-29T16:41:43.808Z,68.60
2017-12-29T16:46:48.270Z,68.90
2017-12-29T16:51:58.315Z,69.00
2017-12-29T16:57:02.993Z,69.10
2017-12-29T17:02:05.577Z,69.20
2017-12-29T17:07:08.120Z,69.50
2017-12-29T17:12:10.670Z,69.70
2017-12-29T17:17:13.210Z,69.80
2017-12-29T17:22:15.754Z,69.90
2017-12-29T17:27:24.818Z,69.80
2017-12-29T17:32:29.399Z,70.00
2017-12-29T17:37:34.500Z,70.00
2017-12-29T17:42:40.103Z,70.70
2017-12-29T17:47:43.718Z,70.30
2017-12-29T17:52:50.427Z,70.50
2017-12-29T17:58:00.880Z,70.40
2017-12-29T18:03:05.367Z,70.50
2017-12-29T18:08:15.118Z,70.30
2017-12-29T18:13:19.469Z,70.20
2017-12-29T18:18:29.136Z,70.10
2017-12-29T18:23:41.004Z,70.30
2017-12-29T18:28:45.589Z,69.70
2017-12-29T18:33:52.071Z,69.60
2017-12-29T18:38:59.036Z,69.30
2017-12-29T18:44:05.254Z,69.50
2017-12-29T18:49:13.623Z,70.00
2017-12-29T18:54:17.704Z,70.70
2017-12-29T18:59:24.032Z,70.40
2017-12-29T19:04:33.620Z,70.90
2017-12-29T19:14:53.689Z,70.80
2017-12-29T19:20:01.389Z,71.00
2017-12-29T19:25:06.544Z,70.90
2017-12-29T19:30:15.264Z,70.80
2017-12-29T19:35:28.167Z,70.90
2017-12-29T19:40:33.150Z,70.80
2017-12-29T19:45:36.688Z,70.50
2017-12-29T19:50:42.057Z,70.60
2017-12-29T20:00:54.036Z,70.30
2017-12-29T20:05:58.360Z,70.30
2017-12-29T20:11:03.296Z,70.30
2017-12-29T20:16:09.464Z,70.20
2017-12-29T20:21:14.949Z,70.50
2017-12-29T20:26:19.471Z,70.40
2017-12-29T20:31:26.294Z,70.10
2017-12-29T20:36:34.452Z,70.10
2017-12-29T20:46:54.864Z,70.20
2017-12-29T20:51:59.562Z,70.60
2017-12-29T20:57:03.888Z,71.30
2017-12-29T21:02:09.881Z,71.90
2017-12-29T21:07:17.042Z,72.60
2017-12-29T21:12:27.397Z,73.10
2017-12-29T21:17:33.892Z,73.50
2017-12-29T21:22:40.127Z,74.10
2017-12-29T21:27:45.976Z,74.00
2017-12-29T21:32:52.553Z,74.40
2017-12-29T21:37:56.722Z,74.70
2017-12-29T21:42:59.299Z,74.60
2017-12-29T21:48:01.826Z,74.90
2017-12-29T21:53:04.380Z,74.90
2017-12-29T21:58:06.920Z,75.00
2017-12-29T22:08:23.402Z,75.30
2017-12-29T22:13:25.914Z,75.50
2017-12-29T22:18:28.459Z,75.70
2017-12-29T22:23:30.992Z,75.60
2017-12-29T22:28:33.522Z,75.60
2017-12-29T22:33:36.061Z,76.10
2017-12-29T22:38:38.590Z,76.00
2017-12-29T22:43:41.893Z,75.80
2017-12-29T22:48:44.434Z,75.70
2017-12-29T22:53:46.978Z,76.00
2017-12-29T22:58:49.518Z,76.10
2017-12-29T23:03:52.070Z,76.10
2017-12-29T23:08:54.614Z,76.60
2017-12-29T23:13:57.145Z,76.60
2017-12-29T23:18:59.704Z,76.60
2017-12-29T23:24:03.014Z,76.80
2017-12-29T23:29:18.680Z,76.80
2017-12-29T23:34:27.317Z,76.90
2017-12-29T23:39:37.904Z,76.70
2017-12-29T23:44:46.568Z,77.10
2017-12-29T23:49:49.286Z,76.70
2017-12-29T23:54:51.826Z,77.00
2017-12-29T23:59:54.362Z,77.30
